createdAt,value
2022-08-21T00:09:08.429Z,8.50
2022-08-21T00:19:11.431Z,11.10
2022-08-21T00:29:16.158Z,17.95
2022-08-21T00:39:19.575Z,16.60
2022-08-21T00:49:23.833Z,13.27
2022-08-21T00:59:30.169Z,16.63
2022-08-21T01:09:34.543Z,13.82
2022-08-21T01:19:37.840Z,11.27
2022-08-21T01:29:47.235Z,11.73
2022-08-21T01:39:50.482Z,16.65
2022-08-21T01:49:55.252Z,17.05
2022-08-21T01:59:58.267Z,18.17
2022-08-21T02:10:02.622Z,18.58
2022-08-21T02:20:06.751Z,17.73
2022-08-21T02:30:14.186Z,16.60
2022-08-21T02:40:19.133Z,18.40
2022-08-21T02:50:26.272Z,15.65
2022-08-21T03:00:32.345Z,28.58
2022-08-21T03:10:37.174Z,24.73
2022-08-21T03:20:42.207Z,28.30
2022-08-21T03:40:50.420Z,25.23
2022-08-21T03:50:55.099Z,26.10
2022-08-21T04:01:00.762Z,23.33
2022-08-21T04:11:05.411Z,29.85
2022-08-21T04:21:12.073Z,22.03
2022-08-21T04:31:17.754Z,27.27
2022-08-21T04:41:27.904Z,32.13
2022-08-21T04:51:36.716Z,21.98
2022-08-21T05:01:42.084Z,26.63
2022-08-21T05:11:46.986Z,20.88
2022-08-21T05:21:50.230Z,23.50
2022-08-21T05:31:55.720Z,19.43
2022-08-21T05:41:58.709Z,23.77
2022-08-21T05:52:03.298Z,18.33
2022-08-21T06:02:08.231Z,22.77
2022-08-21T06:12:14.510Z,22.67
2022-08-21T06:22:17.465Z,21.42
2022-08-21T06:32:21.818Z,26.15
2022-08-21T06:42:27.922Z,13.97
2022-08-21T06:52:33.123Z,20.55
2022-08-21T07:02:36.691Z,17.77
2022-08-21T07:12:46.810Z,16.95
2022-08-21T07:22:49.987Z,23.10
2022-08-21T07:32:54.512Z,24.95
2022-08-21T07:53:02.078Z,18.17
2022-08-21T08:13:10.504Z,15.90
2022-08-21T08:23:14.362Z,16.00
2022-08-21T08:33:19.141Z,13.43
2022-08-21T08:43:22.681Z,16.05
2022-08-21T08:53:32.534Z,18.30
2022-08-21T09:03:36.720Z,15.68
2022-08-21T09:13:52.454Z,11.95
2022-08-21T09:24:02.182Z,15.63
2022-08-21T09:34:09.338Z,13.50
2022-08-21T09:44:15.725Z,8.65
2022-08-21T09:54:22.586Z,14.90
2022-08-21T10:04:32.171Z,8.65
2022-08-21T10:14:49.059Z,6.60
2022-08-21T10:24:58.994Z,12.45
2022-08-21T10:35:11.474Z,10.00
2022-08-21T10:45:45.063Z,6.47
2022-08-21T10:55:57.003Z,8.65
2022-08-21T11:06:04.609Z,14.25
2022-08-21T11:16:18.098Z,12.23
2022-08-21T11:36:38.709Z,11.18
2022-08-21T11:46:51.519Z,8.40
2022-08-21T11:56:59.636Z,11.40
2022-08-21T12:07:13.352Z,6.20
2022-08-21T12:17:22.833Z,10.68
2022-08-21T12:27:31.162Z,11.32
2022-08-21T12:37:44.507Z,13.60
2022-08-21T12:47:52.633Z,7.03
2022-08-21T12:57:56.972Z,11.77
2022-08-21T13:08:06.727Z,10.43
2022-08-21T13:18:23.533Z,13.45
2022-08-21T13:28:35.235Z,9.75
2022-08-21T13:38:43.729Z,7.32
2022-08-21T13:48:46.898Z,10.85
2022-08-21T13:58:51.161Z,9.88
2022-08-21T14:08:57.119Z,10.80
2022-08-21T14:19:13.119Z,10.52
2022-08-21T14:29:18.773Z,13.10
2022-08-21T14:39:23.936Z,9.35
2022-08-21T14:49:29.607Z,15.10
2022-08-21T14:59:34.766Z,11.77
2022-08-21T15:09:37.940Z,15.45
2022-08-21T15:19:42.302Z,11.38
2022-08-21T15:29:45.262Z,16.30
2022-08-21T15:49:57.432Z,12.77
2022-08-21T16:00:12.209Z,8.63
2022-08-21T16:10:16.751Z,10.18
2022-08-21T16:20:25.024Z,11.63
2022-08-21T16:30:28.945Z,9.38
2022-08-21T16:40:33.483Z,13.55
2022-08-21T16:50:38.107Z,5.43
2022-08-21T17:00:42.481Z,10.18
2022-08-21T17:10:48.638Z,7.30
2022-08-21T17:20:53.829Z,14.82
2022-08-21T17:31:01.959Z,9.60
2022-08-21T17:41:11.296Z,10.27
2022-08-21T17:51:14.621Z,22.75
2022-08-21T18:01:20.220Z,7.27
2022-08-21T18:11:26.926Z,9.98
2022-08-21T18:21:32.650Z,8.82
2022-08-21T18:31:38.483Z,8.88
2022-08-21T18:41:43.576Z,10.07
2022-08-21T18:51:47.118Z,9.50
2022-08-21T19:01:51.790Z,11.57
2022-08-21T19:11:55.251Z,12.32
2022-08-21T19:22:00.097Z,11.50
2022-08-21T19:42:10.306Z,9.43
2022-08-21T20:02:37.545Z,15.82
2022-08-21T20:12:51.682Z,10.10
2022-08-21T20:22:56.087Z,12.40
2022-08-21T20:32:59.997Z,12.27
2022-08-21T20:43:05.107Z,10.47
2022-08-21T20:53:14.678Z,13.82
2022-08-21T21:03:30.621Z,10.80
2022-08-21T21:13:37.231Z,14.40
2022-08-21T21:23:46.749Z,10.40
2022-08-21T21:33:50.237Z,7.93
2022-08-21T21:44:12.745Z,10.20
2022-08-21T21:54:30.720Z,13.23
2022-08-21T22:04:38.863Z,12.68
2022-08-21T22:14:53.864Z,10.50
2022-08-21T22:25:05.699Z,14.48
2022-08-21T22:35:16.471Z,13.95
2022-08-21T22:45:22.337Z,9.48
2022-08-21T22:55:29.302Z,10.98
2022-08-21T23:05:36.881Z,9.65
2022-08-21T23:15:47.093Z,10.93
2022-08-21T23:26:08.038Z,13.55
2022-08-21T23:36:45.792Z,18.17
2022-08-21T23:47:03.538Z,18.73
2022-08-21T23:57:21.873Z,21.45
